createdAt,value
2018-11-05T00:00:47.336Z,101156.28
2018-11-05T00:03:15.529Z,101153.47
2018-11-05T00:05:43.678Z,101150.15
2018-11-05T00:08:11.880Z,101150.47
2018-11-05T00:10:39.977Z,101145.44
2018-11-05T00:13:08.137Z,101137.74
2018-11-05T00:15:36.311Z,101138.00
2018-11-05T00:18:04.816Z,101138.20
2018-11-05T00:20:32.961Z,101144.57
2018-11-05T00:23:01.079Z,101142.45
2018-11-05T00:25:29.210Z,101142.88
2018-11-05T00:27:57.325Z,101133.08
2018-11-05T00:30:25.485Z,101129.00
2018-11-05T00:32:53.645Z,101128.84
2018-11-05T00:35:21.799Z,101129.00
2018-11-05T00:37:49.962Z,101127.63
2018-11-05T00:40:18.094Z,101120.67
2018-11-05T00:42:46.605Z,101125.77
2018-11-05T00:45:15.302Z,101118.13
2018-11-05T00:47:44.000Z,101121.59
2018-11-05T00:50:13.494Z,101120.74
2018-11-05T00:52:41.680Z,101119.57
2018-11-05T00:55:10.694Z,101118.91
2018-11-05T00:57:38.826Z,101116.62
2018-11-05T01:00:11.541Z,101114.95
2018-11-05T01:02:40.229Z,101109.41
2018-11-05T01:05:09.524Z,101111.08
2018-11-05T01:07:37.657Z,101111.92
2018-11-05T01:10:06.501Z,101105.22
2018-11-05T01:12:34.653Z,101100.41
2018-11-05T01:15:02.789Z,101104.58
2018-11-05T01:17:31.021Z,101103.77
2018-11-05T01:19:59.165Z,101107.95
2018-11-05T01:22:27.325Z,101105.79
2018-11-05T01:24:55.458Z,101100.84
2018-11-05T01:27:23.629Z,101098.83
2018-11-05T01:29:51.765Z,101097.04
2018-11-05T01:32:19.910Z,101095.56
2018-11-05T01:34:48.168Z,101101.30
2018-11-05T01:37:16.315Z,101097.52
2018-11-05T01:39:44.438Z,101093.79
2018-11-05T01:42:12.585Z,101091.11
2018-11-05T01:44:40.742Z,101083.94
2018-11-05T01:47:08.866Z,101085.77
2018-11-05T01:49:37.052Z,101081.05
2018-11-05T01:52:05.875Z,101078.25
2018-11-05T01:54:33.990Z,101076.30
2018-11-05T01:57:02.109Z,101064.27
2018-11-05T01:59:30.197Z,101054.49
2018-11-05T02:01:58.317Z,101070.16
2018-11-05T02:04:26.396Z,101067.75
2018-11-05T02:06:54.503Z,101055.48
2018-11-05T02:09:22.596Z,101053.17
2018-11-05T02:11:50.706Z,101060.48
2018-11-05T02:14:18.810Z,101055.48
2018-11-05T02:16:46.868Z,101050.58
2018-11-05T02:19:15.004Z,101050.70
2018-11-05T02:21:43.099Z,101055.45
2018-11-05T02:24:11.192Z,101049.41
2018-11-05T02:26:39.287Z,101048.61
2018-11-05T02:29:07.392Z,101058.78
2018-11-05T02:31:35.473Z,101049.86
2018-11-05T02:34:03.576Z,101047.81
2018-11-05T02:36:31.636Z,101043.11
2018-11-05T02:38:59.755Z,101044.83
2018-11-05T02:41:27.852Z,101038.22
2018-11-05T02:43:56.128Z,101043.59
2018-11-05T02:46:24.220Z,101036.14
2018-11-05T02:48:52.323Z,101046.84
2018-11-05T02:51:20.445Z,101037.63
2018-11-05T02:53:48.553Z,101039.59
2018-11-05T02:56:16.675Z,101041.23
2018-11-05T02:58:44.796Z,101034.70
2018-11-05T03:01:12.907Z,101036.80
2018-11-05T03:03:41.160Z,101038.36
2018-11-05T03:06:09.282Z,101038.50
2018-11-05T03:08:37.344Z,101030.59
2018-11-05T03:11:05.466Z,101026.80
2018-11-05T03:13:33.544Z,101022.41
2018-11-05T03:16:01.628Z,101016.27
2018-11-05T03:18:29.728Z,101017.13
2018-11-05T03:20:57.855Z,101015.03
2018-11-05T03:23:25.962Z,101019.45
2018-11-05T03:25:54.064Z,101013.84
2018-11-05T03:28:22.180Z,101011.44
2018-11-05T03:30:50.283Z,101008.83
2018-11-05T03:33:18.400Z,101006.46
2018-11-05T03:35:46.613Z,100997.28
2018-11-05T03:38:14.616Z,100997.53
2018-11-05T03:40:42.729Z,100999.75
2018-11-05T03:43:10.836Z,101002.01
2018-11-05T03:45:38.996Z,100996.89
2018-11-05T03:48:07.097Z,101000.95
2018-11-05T03:50:35.175Z,100998.66
2018-11-05T03:53:03.321Z,101001.66
2018-11-05T03:55:31.540Z,101001.66
2018-11-05T03:57:59.600Z,101006.09
2018-11-05T04:00:27.692Z,101012.77
2018-11-05T04:02:55.794Z,101004.27
2018-11-05T04:05:23.940Z,101001.34
2018-11-05T04:07:52.040Z,100995.02
2018-11-05T04:10:20.128Z,100989.20
2018-11-05T04:12:48.193Z,100986.44
2018-11-05T04:15:16.307Z,100985.94
2018-11-05T04:17:44.408Z,100983.66
2018-11-05T04:20:13.652Z,100988.88
2018-11-05T04:22:42.558Z,100981.50
2018-11-05T04:25:10.704Z,100983.33
2018-11-05T04:27:38.847Z,100976.34
2018-11-05T04:30:09.548Z,100983.08
2018-11-05T04:32:37.824Z,100981.11
2018-11-05T04:35:05.928Z,100982.66
2018-11-05T04:37:34.041Z,100980.27
2018-11-05T04:40:02.117Z,100972.68
2018-11-05T04:42:30.212Z,100979.27
2018-11-05T04:44:58.320Z,100994.09
2018-11-05T04:47:26.446Z,100992.34
2018-11-05T04:49:54.572Z,100986.91
2018-11-05T04:52:22.701Z,100981.36
2018-11-05T04:54:50.812Z,100971.76
2018-11-05T04:57:18.916Z,100972.22
2018-11-05T04:59:47.050Z,100973.59
2018-11-05T05:02:15.155Z,100971.62
2018-11-05T05:04:43.266Z,100970.39
2018-11-05T05:07:11.368Z,100968.02
2018-11-05T05:09:39.444Z,100971.94
2018-11-05T05:12:07.544Z,100969.86
2018-11-05T05:14:35.956Z,100957.72
2018-11-05T05:17:04.029Z,100955.45
2018-11-05T05:19:32.135Z,100958.52
2018-11-05T05:22:00.205Z,100954.67
2018-11-05T05:24:28.363Z,100955.00
2018-11-05T05:26:56.464Z,100967.34
2018-11-05T05:29:24.633Z,100955.39
2018-11-05T05:31:52.791Z,100951.64
2018-11-05T05:34:20.907Z,100952.07
2018-11-05T05:36:48.989Z,100955.77
2018-11-05T05:39:17.120Z,100942.86
2018-11-05T05:41:45.228Z,100943.78
2018-11-05T05:44:13.312Z,100946.63
2018-11-05T05:46:41.409Z,100944.87
2018-11-05T05:49:09.520Z,100942.72
2018-11-05T05:51:37.644Z,100945.08
2018-11-05T05:54:05.947Z,100949.42
2018-11-05T05:56:34.033Z,100956.16
2018-11-05T05:59:02.120Z,100955.17
2018-11-05T06:01:30.221Z,100952.95
2018-11-05T06:03:58.352Z,100949.88
2018-11-05T06:06:26.485Z,100954.40
2018-11-05T06:08:54.556Z,100955.25
2018-11-05T06:11:22.675Z,100950.59
2018-11-05T06:13:50.811Z,100952.28
2018-11-05T06:16:18.976Z,100950.69
2018-11-05T06:18:47.082Z,100953.97
2018-11-05T06:21:15.187Z,100944.27
2018-11-05T06:23:43.429Z,100936.67
2018-11-05T06:26:11.516Z,100940.84
2018-11-05T06:28:39.724Z,100939.19
2018-11-05T06:31:08.248Z,100944.12
2018-11-05T06:33:36.344Z,100934.57
2018-11-05T06:36:04.924Z,100942.79
2018-11-05T06:38:33.081Z,100947.09
2018-11-05T06:41:01.521Z,100958.03
2018-11-05T06:43:29.564Z,100956.59
2018-11-05T06:45:57.708Z,100963.02
2018-11-05T06:48:25.802Z,100959.16
2018-11-05T06:50:53.932Z,100957.50
2018-11-05T06:53:22.096Z,100961.49
2018-11-05T06:55:50.235Z,100958.78
2018-11-05T06:58:18.360Z,100968.34
2018-11-05T07:00:46.492Z,100962.48
2018-11-05T07:03:14.591Z,100968.97
2018-11-05T07:05:42.861Z,100975.72
2018-11-05T07:08:11.032Z,100974.73
2018-11-05T07:10:39.240Z,100970.63
2018-11-05T07:13:09.899Z,100967.73
2018-11-05T07:15:40.032Z,100964.20
2018-11-05T07:18:08.451Z,100967.42
2018-11-05T07:20:36.565Z,100964.88
2018-11-05T07:23:04.697Z,100970.27
2018-11-05T07:25:32.823Z,100962.99
2018-11-05T07:28:00.924Z,100959.89
2018-11-05T07:30:29.052Z,100955.61
2018-11-05T07:32:57.159Z,100952.54
2018-11-05T07:35:25.251Z,100952.17
2018-11-05T07:37:53.369Z,100957.03
2018-11-05T07:40:21.553Z,100958.03
2018-11-05T07:42:49.701Z,100964.64
2018-11-05T07:45:19.089Z,100966.42
2018-11-05T07:47:47.692Z,100960.66
2018-11-05T07:50:16.769Z,100963.20
2018-11-05T07:52:44.811Z,100957.73
2018-11-05T07:55:14.194Z,100955.43
2018-11-05T07:57:43.481Z,100945.44
2018-11-05T08:00:18.270Z,100943.67
2018-11-05T08:02:47.383Z,100940.52
2018-11-05T08:05:16.407Z,100938.13
2018-11-05T08:07:44.744Z,100930.22
2018-11-05T08:10:12.887Z,100930.34
2018-11-05T08:12:41.761Z,100932.42
2018-11-05T08:15:13.132Z,100934.75
2018-11-05T08:17:41.891Z,100938.75
2018-11-05T08:20:10.481Z,100938.11
2018-11-05T08:22:38.779Z,100932.81
2018-11-05T08:25:06.951Z,100942.05
2018-11-05T08:27:35.355Z,100933.27
2018-11-05T08:30:03.491Z,100934.74
2018-11-05T08:32:31.640Z,100941.17
2018-11-05T08:34:59.975Z,100937.63
2018-11-05T08:37:28.088Z,100942.94
2018-11-05T08:39:56.250Z,100936.02
2018-11-05T08:42:24.381Z,100933.33
2018-11-05T08:44:52.744Z,100925.64
2018-11-05T08:47:20.990Z,100932.79
2018-11-05T08:49:49.105Z,100936.64
2018-11-05T08:52:17.213Z,100931.95
2018-11-05T08:54:45.330Z,100927.41
2018-11-05T08:57:13.477Z,100921.87
2018-11-05T08:59:41.661Z,100922.09
2018-11-05T09:02:09.785Z,100919.87
2018-11-05T09:04:38.010Z,100918.75
2018-11-05T09:07:07.778Z,100920.14
2018-11-05T09:09:35.935Z,100917.13
2018-11-05T09:12:04.070Z,100910.52
2018-11-05T09:14:32.230Z,100910.98
2018-11-05T09:17:00.612Z,100908.36
2018-11-05T09:19:28.738Z,100912.44
2018-11-05T09:21:56.867Z,100911.51
2018-11-05T09:24:25.008Z,100908.28
2018-11-05T09:26:53.120Z,100904.97
2018-11-05T09:29:21.252Z,100904.97
2018-11-05T09:31:49.407Z,100901.35
2018-11-05T09:34:17.643Z,100899.43
2018-11-05T09:36:45.765Z,100892.84
2018-11-05T09:39:13.872Z,100889.84
2018-11-05T09:41:42.021Z,100889.75
2018-11-05T09:44:10.200Z,100890.07
2018-11-05T09:46:38.300Z,100897.16
2018-11-05T09:49:06.740Z,100891.54
2018-11-05T09:51:34.867Z,100892.55
2018-11-05T09:54:03.005Z,100889.83
2018-11-05T09:56:31.155Z,100890.35
2018-11-05T09:58:59.288Z,100895.36
2018-11-05T10:01:27.463Z,100902.63
2018-11-05T10:03:57.186Z,100895.07
2018-11-05T10:06:26.271Z,100898.31
2018-11-05T10:08:54.455Z,100894.55
2018-11-05T10:11:23.202Z,100886.05
2018-11-05T10:13:51.360Z,100882.69
2018-11-05T10:16:19.794Z,100891.45
2018-11-05T10:18:48.083Z,100879.59
2018-11-05T10:21:16.486Z,100887.57
2018-11-05T10:23:45.739Z,100885.83
2018-11-05T10:26:14.328Z,100886.92
2018-11-05T10:28:42.807Z,100888.97
2018-11-05T10:31:15.196Z,100884.05
2018-11-05T10:33:47.556Z,100885.39
2018-11-05T10:36:15.637Z,100885.69
2018-11-05T10:38:43.784Z,100882.83
2018-11-05T10:41:12.686Z,100883.16
2018-11-05T10:43:41.382Z,100879.59
2018-11-05T10:46:09.880Z,100884.08
2018-11-05T10:48:38.810Z,100882.14
2018-11-05T10:51:07.057Z,100872.22
2018-11-05T10:53:35.651Z,100870.59
2018-11-05T10:56:04.526Z,100869.69
2018-11-05T10:58:32.923Z,100862.27
2018-11-05T11:01:06.484Z,100866.66
2018-11-05T11:03:36.101Z,100865.02
2018-11-05T11:06:05.204Z,100866.88
2018-11-05T11:08:33.705Z,100859.02
2018-11-05T11:11:02.111Z,100857.25
2018-11-05T11:13:30.320Z,100850.16
2018-11-05T11:15:58.447Z,100844.56
2018-11-05T11:18:27.248Z,100840.09
2018-11-05T11:20:55.695Z,100843.21
2018-11-05T11:23:24.103Z,100842.75
2018-11-05T11:25:52.626Z,100842.12
2018-11-05T11:28:21.222Z,100829.41
2018-11-05T11:30:49.914Z,100828.48
2018-11-05T11:33:18.506Z,100819.73
2018-11-05T11:35:47.107Z,100828.39
2018-11-05T11:38:15.257Z,100829.66
2018-11-05T11:40:43.355Z,100828.94
2018-11-05T11:43:11.484Z,100818.67
2018-11-05T11:45:40.323Z,100812.72
2018-11-05T11:48:08.466Z,100818.17
2018-11-05T11:50:36.598Z,100815.55
2018-11-05T11:53:05.371Z,100816.10
2018-11-05T11:55:33.633Z,100811.12
2018-11-05T11:58:01.650Z,100811.25
2018-11-05T12:00:29.805Z,100803.02
2018-11-05T12:02:59.177Z,100804.16
2018-11-05T12:05:28.099Z,100800.44
2018-11-05T12:07:56.446Z,100791.15
2018-11-05T12:10:26.439Z,100785.27
2018-11-05T12:12:54.825Z,100785.10
2018-11-05T12:15:23.788Z,100788.19
2018-11-05T12:17:52.864Z,100781.52
2018-11-05T12:20:22.313Z,100775.27
2018-11-05T12:22:51.032Z,100774.05
2018-11-05T12:25:19.170Z,100770.48
2018-11-05T12:27:47.334Z,100765.92
2018-11-05T12:30:17.841Z,100764.58
2018-11-05T12:32:47.543Z,100760.77
2018-11-05T12:35:15.657Z,100757.60
2018-11-05T12:37:44.979Z,100752.88
2018-11-05T12:40:14.735Z,100756.60
2018-11-05T12:42:43.911Z,100749.77
2018-11-05T12:45:12.175Z,100746.28
2018-11-05T12:47:40.466Z,100741.10
2018-11-05T12:50:13.535Z,100735.14
2018-11-05T12:52:42.250Z,100740.28
2018-11-05T12:55:10.935Z,100734.97
2018-11-05T12:57:39.044Z,100723.38
2018-11-05T13:00:10.109Z,100727.02
2018-11-05T13:02:38.241Z,100723.20
2018-11-05T13:05:07.396Z,100726.27
2018-11-05T13:07:35.592Z,100723.64
2018-11-05T13:10:03.754Z,100715.50
2018-11-05T13:12:31.860Z,100715.52
2018-11-05T13:14:59.973Z,100720.88
2018-11-05T13:17:28.070Z,100715.79
2018-11-05T13:19:56.191Z,100716.72
2018-11-05T13:22:24.447Z,100716.17
2018-11-05T13:24:52.448Z,100724.02
2018-11-05T13:27:20.552Z,100723.44
2018-11-05T13:29:48.681Z,100727.48
2018-11-05T13:32:16.781Z,100723.94
2018-11-05T13:34:44.922Z,100731.20
2018-11-05T13:37:13.381Z,100733.73
2018-11-05T13:39:41.150Z,100732.52
2018-11-05T13:42:09.284Z,100722.25
2018-11-05T13:44:37.430Z,100722.42
2018-11-05T13:47:06.509Z,100726.64
2018-11-05T13:49:34.157Z,100721.95
2018-11-05T13:52:02.978Z,100721.87
2018-11-05T13:54:31.330Z,100723.81
2018-11-05T13:56:59.346Z,100722.80
2018-11-05T13:59:27.502Z,100721.49
2018-11-05T14:01:55.640Z,100717.02
2018-11-05T14:04:23.825Z,100711.40
2018-11-05T14:06:51.952Z,100713.26
2018-11-05T14:09:20.823Z,100714.28
2018-11-05T14:11:48.959Z,100714.02
2018-11-05T14:14:17.124Z,100715.20
2018-11-05T14:16:45.248Z,100710.09
2018-11-05T14:19:13.468Z,100709.16
2018-11-05T14:21:41.597Z,100708.11
2018-11-05T14:24:09.726Z,100704.06
2018-11-05T14:26:37.814Z,100697.98
2018-11-05T14:29:07.456Z,100700.02
2018-11-05T14:31:35.161Z,100692.22
2018-11-05T14:34:03.289Z,100685.00
2018-11-05T14:36:31.536Z,100680.41
2018-11-05T14:38:59.673Z,100680.82
2018-11-05T14:41:27.817Z,100686.41
2018-11-05T14:43:56.050Z,100689.52
2018-11-05T14:46:24.208Z,100677.91
2018-11-05T14:48:52.352Z,100678.08
2018-11-05T14:51:20.549Z,100678.45
2018-11-05T14:53:48.648Z,100686.98
2018-11-05T14:56:16.784Z,100684.49
2018-11-05T14:58:44.905Z,100694.70
2018-11-05T15:01:13.060Z,100695.63
2018-11-05T15:03:41.404Z,100694.23
2018-11-05T15:06:09.544Z,100693.48
2018-11-05T15:08:37.666Z,100700.92
2018-11-05T15:11:05.780Z,100699.36
2018-11-05T15:13:33.953Z,100688.09
2018-11-05T15:16:02.098Z,100693.95
2018-11-05T15:18:30.332Z,100700.53
2018-11-05T15:20:58.390Z,100686.95
2018-11-05T15:23:26.577Z,100682.39
2018-11-05T15:25:54.809Z,100679.56
2018-11-05T15:28:22.880Z,100664.75
2018-11-05T15:31:54.085Z,100668.84
2018-11-05T15:34:22.273Z,100667.27
2018-11-05T15:36:50.460Z,100668.38
2018-11-05T15:39:18.592Z,100672.59
2018-11-05T15:41:46.716Z,100677.54
2018-11-05T15:44:14.866Z,100684.17
2018-11-05T15:46:43.126Z,100669.77
2018-11-05T15:49:11.484Z,100669.39
2018-11-05T15:51:39.950Z,100662.12
2018-11-05T15:54:07.858Z,100666.52
2018-11-05T15:56:35.917Z,100669.77
2018-11-05T15:59:04.073Z,100665.94
2018-11-05T16:01:32.224Z,100677.66
2018-11-05T16:04:00.412Z,100679.17
2018-11-05T16:06:28.596Z,100678.97
2018-11-05T16:08:56.699Z,100675.71
2018-11-05T16:11:24.868Z,100679.69
2018-11-05T16:13:52.999Z,100684.17
2018-11-05T16:16:21.111Z,100677.36
2018-11-05T16:18:49.252Z,100677.36
2018-11-05T16:21:17.420Z,100679.23
2018-11-05T16:23:46.553Z,100676.31
2018-11-05T16:26:14.629Z,100675.77
2018-11-05T16:28:42.764Z,100671.46
2018-11-05T16:31:10.878Z,100672.30
2018-11-05T16:33:39.374Z,100674.28
2018-11-05T16:36:08.214Z,100673.06
2018-11-05T16:38:36.423Z,100667.91
2018-11-05T16:41:04.484Z,100666.64
2018-11-05T16:43:32.631Z,100666.87
2018-11-05T16:46:00.897Z,100668.67
2018-11-05T16:48:29.049Z,100671.08
2018-11-05T16:50:57.142Z,100672.02
2018-11-05T16:53:25.249Z,100669.14
2018-11-05T16:55:53.343Z,100663.23
2018-11-05T16:58:21.466Z,100663.61
2018-11-05T17:00:50.267Z,100657.27
2018-11-05T17:03:18.512Z,100656.98
2018-11-05T17:05:47.189Z,100657.70
2018-11-05T17:08:15.299Z,100651.83
2018-11-05T17:10:43.647Z,100659.77
2018-11-05T17:13:11.919Z,100657.91
2018-11-05T17:15:39.984Z,100657.16
2018-11-05T17:18:08.306Z,100650.44
2018-11-05T17:20:36.509Z,100654.07
2018-11-05T17:23:04.628Z,100657.23
2018-11-05T17:25:32.777Z,100659.02
2018-11-05T17:28:00.879Z,100665.00
2018-11-05T17:30:29.200Z,100655.03
2018-11-05T17:32:57.293Z,100651.40
2018-11-05T17:35:25.398Z,100645.70
2018-11-05T17:37:53.545Z,100643.37
2018-11-05T17:40:22.632Z,100652.41
2018-11-05T17:42:50.788Z,100658.23
2018-11-05T17:45:19.711Z,100649.53
2018-11-05T17:47:48.208Z,100635.72
2018-11-05T17:50:18.417Z,100629.89
2018-11-05T17:52:46.497Z,100633.28
2018-11-05T17:55:15.337Z,100641.97
2018-11-05T17:57:44.393Z,100641.06
2018-11-05T18:00:16.654Z,100650.58
2018-11-05T18:02:44.780Z,100640.20
2018-11-05T18:05:12.913Z,100634.96
2018-11-05T18:07:41.029Z,100631.50
2018-11-05T18:10:09.313Z,100638.42
2018-11-05T18:12:37.435Z,100644.13
2018-11-05T18:15:07.363Z,100637.00
2018-11-05T18:17:35.511Z,100626.48
2018-11-05T18:20:03.633Z,100643.66
2018-11-05T18:22:31.764Z,100627.15
2018-11-05T18:24:59.906Z,100610.87
2018-11-05T18:27:28.045Z,100619.35
2018-11-05T18:29:56.133Z,100615.77
2018-11-05T18:32:24.272Z,100592.70
2018-11-05T18:34:53.023Z,100605.11
2018-11-05T18:37:21.209Z,100608.10
2018-11-05T18:39:50.177Z,100591.27
2018-11-05T18:42:19.127Z,100595.05
2018-11-05T18:44:47.263Z,100598.00
2018-11-05T18:47:15.440Z,100596.06
2018-11-05T18:49:43.584Z,100596.52
2018-11-05T18:52:11.733Z,100587.92
2018-11-05T18:54:39.956Z,100588.51
2018-11-05T18:57:08.435Z,100581.72
2018-11-05T18:59:36.500Z,100587.00
2018-11-05T19:02:04.895Z,100589.96
2018-11-05T19:04:33.012Z,100578.20
2018-11-05T19:07:01.214Z,100577.06
2018-11-05T19:09:29.367Z,100572.55
2018-11-05T19:11:57.460Z,100582.32
2018-11-05T19:14:25.575Z,100576.09
2018-11-05T19:16:53.729Z,100571.27
2018-11-05T19:19:21.832Z,100564.50
2018-11-05T19:21:50.003Z,100572.55
2018-11-05T19:24:18.279Z,100578.77
2018-11-05T19:26:46.225Z,100575.51
2018-11-05T19:29:14.355Z,100559.76
2018-11-05T19:31:42.484Z,100548.83
2018-11-05T19:34:10.718Z,100553.30
2018-11-05T19:36:38.741Z,100549.55
2018-11-05T19:39:08.857Z,100545.47
2018-11-05T19:41:37.064Z,100539.02
2018-11-05T19:44:05.416Z,100541.39
2018-11-05T19:46:34.288Z,100537.86
2018-11-05T19:49:02.404Z,100538.38
2018-11-05T19:51:30.556Z,100538.00
2018-11-05T19:53:58.653Z,100535.77
2018-11-05T19:56:26.807Z,100522.41
2018-11-05T19:58:54.867Z,100520.38
2018-11-05T20:01:23.570Z,100520.12
2018-11-05T20:03:51.699Z,100513.21
2018-11-05T20:06:19.821Z,100511.46
2018-11-05T20:08:47.924Z,100516.91
2018-11-05T20:11:16.133Z,100519.44
2018-11-05T20:13:44.239Z,100523.66
2018-11-05T20:16:12.391Z,100514.96
2018-11-05T20:18:40.530Z,100510.77
2018-11-05T20:21:08.615Z,100505.92
2018-11-05T20:23:36.716Z,100513.90
2018-11-05T20:26:04.918Z,100515.68
2018-11-05T20:28:33.111Z,100507.13
2018-11-05T20:31:01.265Z,100510.05
2018-11-05T20:33:29.371Z,100510.66
2018-11-05T20:35:57.392Z,100506.37
2018-11-05T20:38:25.528Z,100502.50
2018-11-05T20:40:53.700Z,100502.97
2018-11-05T20:43:21.752Z,100503.12
2018-11-05T20:45:49.850Z,100505.50
2018-11-05T20:48:17.937Z,100503.50
2018-11-05T20:50:46.056Z,100500.66
2018-11-05T20:53:14.134Z,100505.41
2018-11-05T20:55:42.217Z,100504.19
2018-11-05T20:58:10.329Z,100500.12
2018-11-05T21:00:38.501Z,100504.00
2018-11-05T21:03:06.593Z,100499.98
2018-11-05T21:05:34.697Z,100497.37
2018-11-05T21:08:02.792Z,100498.21
2018-11-05T21:10:30.901Z,100489.04
2018-11-05T21:12:58.980Z,100497.29
2018-11-05T21:15:27.082Z,100494.59
2018-11-05T21:17:55.191Z,100496.44
2018-11-05T21:20:23.288Z,100496.51
2018-11-05T21:22:51.557Z,100500.34
2018-11-05T21:25:19.560Z,100497.42
2018-11-05T21:27:47.676Z,100493.28
2018-11-05T21:30:20.421Z,100484.31
2018-11-05T21:32:48.574Z,100485.39
2018-11-05T21:35:18.015Z,100482.94
2018-11-05T21:37:46.161Z,100488.06
2018-11-05T21:40:15.612Z,100488.52
2018-11-05T21:42:43.699Z,100490.16
2018-11-05T21:45:12.965Z,100491.45
2018-11-05T21:47:41.565Z,100495.42
2018-11-05T21:50:11.151Z,100487.31
2018-11-05T21:52:40.248Z,100488.22
2018-11-05T21:55:08.770Z,100486.16
2018-11-05T21:57:37.838Z,100487.69
2018-11-05T22:00:09.196Z,100477.04
2018-11-05T22:02:42.644Z,100475.66
2018-11-05T22:05:10.736Z,100471.08
2018-11-05T22:07:38.844Z,100465.92
2018-11-05T22:10:07.037Z,100452.77
2018-11-05T22:12:35.343Z,100450.75
2018-11-05T22:15:03.728Z,100447.58
2018-11-05T22:17:31.797Z,100442.83
2018-11-05T22:19:59.904Z,100439.59
2018-11-05T22:22:27.981Z,100445.12
2018-11-05T22:24:56.065Z,100441.75
2018-11-05T22:27:24.169Z,100437.00
2018-11-05T22:29:52.256Z,100430.59
2018-11-05T22:32:20.331Z,100427.35
2018-11-05T22:34:48.452Z,100425.92
2018-11-05T22:37:16.592Z,100427.89
2018-11-05T22:39:44.663Z,100435.23
2018-11-05T22:42:12.768Z,100431.33
2018-11-05T22:44:40.872Z,100428.70
2018-11-05T22:47:08.977Z,100427.55
2018-11-05T22:49:37.304Z,100425.84
2018-11-05T22:52:06.181Z,100428.40
2018-11-05T22:54:34.291Z,100427.09
2018-11-05T22:57:02.395Z,100415.45
2018-11-05T22:59:30.480Z,100410.61
2018-11-05T23:01:58.608Z,100410.67
2018-11-05T23:04:26.752Z,100412.05
2018-11-05T23:06:54.880Z,100413.23
2018-11-05T23:09:23.340Z,100416.37
2018-11-05T23:11:51.446Z,100419.13
2018-11-05T23:14:19.578Z,100414.51
2018-11-05T23:16:47.664Z,100417.11
2018-11-05T23:19:15.748Z,100422.63
2018-11-05T23:21:43.840Z,100412.38
2018-11-05T23:24:11.994Z,100416.47
2018-11-05T23:26:40.143Z,100426.28
2018-11-05T23:29:08.257Z,100419.87
2018-11-05T23:31:36.328Z,100419.53
2018-11-05T23:34:04.444Z,100410.94
2018-11-05T23:36:32.567Z,100408.95
2018-11-05T23:39:00.688Z,100416.20
2018-11-05T23:41:28.758Z,100404.30
2018-11-05T23:43:56.844Z,100398.54
2018-11-05T23:46:25.076Z,100402.05
2018-11-05T23:48:53.226Z,100414.45
2018-11-05T23:51:21.317Z,100416.59
2018-11-05T23:53:49.539Z,100410.05
2018-11-05T23:56:17.662Z,100406.00
2018-11-05T23:58:45.768Z,100397.56
